createdAt,value
2019-03-17T00:02:19.354Z,11.60
2019-03-17T00:04:51.887Z,11.60
2019-03-17T00:07:28.353Z,11.50
2019-03-17T00:10:06.666Z,11.50
2019-03-17T00:12:39.759Z,11.60
2019-03-17T00:15:14.521Z,11.50
2019-03-17T00:17:52.282Z,11.50
2019-03-17T00:20:28.364Z,11.50
2019-03-17T00:23:04.603Z,11.50
2019-03-17T00:25:40.208Z,11.50
2019-03-17T00:28:20.313Z,11.50
2019-03-17T00:30:54.267Z,11.50
2019-03-17T00:33:27.695Z,11.50
2019-03-17T00:36:04.657Z,11.50
2019-03-17T00:38:36.171Z,11.50
2019-03-17T00:41:24.636Z,11.50
2019-03-17T00:43:58.853Z,11.50
2019-03-17T00:46:31.946Z,11.40
2019-03-17T00:49:06.073Z,11.40
2019-03-17T00:51:44.840Z,11.50
2019-03-17T00:54:19.108Z,11.40
2019-03-17T00:56:51.926Z,11.40
2019-03-17T00:59:25.795Z,11.40
2019-03-17T01:02:00.966Z,11.40
2019-03-17T01:04:42.762Z,11.40
2019-03-17T01:07:19.375Z,11.40
2019-03-17T01:09:54.211Z,11.30
2019-03-17T01:12:28.855Z,11.30
2019-03-17T01:15:05.460Z,11.30
2019-03-17T01:17:38.597Z,11.20
2019-03-17T01:20:18.839Z,11.10
2019-03-17T01:22:55.764Z,11.00
2019-03-17T01:25:30.146Z,11.00
2019-03-17T01:28:03.125Z,10.90
2019-03-17T01:30:37.110Z,10.80
2019-03-17T01:33:10.783Z,10.80
2019-03-17T01:35:43.487Z,10.80
2019-03-17T01:38:16.752Z,10.80
2019-03-17T01:40:53.204Z,10.90
2019-03-17T01:43:24.797Z,10.90
2019-03-17T01:45:58.891Z,11.00
2019-03-17T01:48:40.070Z,11.00
2019-03-17T01:51:12.446Z,10.90
2019-03-17T01:53:48.953Z,10.90
2019-03-17T01:58:47.113Z,10.90
2019-03-17T02:01:26.999Z,11.00
2019-03-17T02:04:01.153Z,11.00
2019-03-17T02:06:34.601Z,10.90
2019-03-17T02:09:14.528Z,11.00
2019-03-17T02:11:50.296Z,10.90
2019-03-17T02:14:25.619Z,11.00
2019-03-17T02:16:57.239Z,11.00
2019-03-17T02:19:29.606Z,11.00
2019-03-17T02:22:07.203Z,11.00
2019-03-17T02:24:40.866Z,11.00
2019-03-17T02:27:19.219Z,10.90
2019-03-17T02:29:54.653Z,10.90
2019-03-17T02:32:28.350Z,10.90
2019-03-17T02:35:04.539Z,10.90
2019-03-17T02:37:40.350Z,10.80
2019-03-17T02:40:17.101Z,10.80
2019-03-17T02:42:50.379Z,10.80
2019-03-17T02:45:25.272Z,10.70
2019-03-17T02:47:59.362Z,10.80
2019-03-17T02:50:31.183Z,10.80
2019-03-17T02:53:02.476Z,10.80
2019-03-17T02:55:33.857Z,10.80
2019-03-17T02:58:06.477Z,10.90
2019-03-17T03:00:38.724Z,10.90
2019-03-17T03:03:13.973Z,10.90
2019-03-17T03:05:54.805Z,10.90
2019-03-17T03:08:19.093Z,11.00
2019-03-17T03:10:52.001Z,11.00
2019-03-17T03:13:24.630Z,11.00
2019-03-17T03:15:58.000Z,11.00
2019-03-17T03:18:31.607Z,11.00
2019-03-17T03:21:04.004Z,11.00
2019-03-17T03:23:36.590Z,11.00
2019-03-17T03:26:08.566Z,11.00
2019-03-17T03:28:41.147Z,10.90
2019-03-17T03:31:12.638Z,10.80
2019-03-17T03:33:44.075Z,10.60
2019-03-17T03:36:17.442Z,10.40
2019-03-17T03:38:48.986Z,10.20
2019-03-17T03:41:22.815Z,10.00
2019-03-17T03:43:55.643Z,9.90
2019-03-17T03:46:28.335Z,9.80
2019-03-17T03:48:59.725Z,9.60
2019-03-17T03:51:31.134Z,9.50
2019-03-17T03:54:02.452Z,9.50
2019-03-17T03:56:33.833Z,9.50
2019-03-17T03:59:05.745Z,9.60
2019-03-17T04:01:37.194Z,9.60
2019-03-17T04:04:10.129Z,9.60
2019-03-17T04:06:42.078Z,9.60
2019-03-17T04:09:14.805Z,9.50
2019-03-17T04:11:46.274Z,9.50
2019-03-17T04:14:20.546Z,9.50
2019-03-17T04:16:53.089Z,9.50
2019-03-17T04:19:24.515Z,9.60
2019-03-17T04:21:56.122Z,9.70
2019-03-17T04:24:27.539Z,9.80
2019-03-17T04:26:59.252Z,9.80
2019-03-17T04:29:32.207Z,9.90
2019-03-17T04:32:05.809Z,9.90
2019-03-17T04:34:38.455Z,9.90
2019-03-17T04:37:10.011Z,10.00
2019-03-17T04:39:42.947Z,10.00
2019-03-17T04:42:17.261Z,9.90
2019-03-17T04:44:48.624Z,9.90
2019-03-17T04:47:21.158Z,9.70
2019-03-17T04:49:52.699Z,9.50
2019-03-17T04:52:25.828Z,9.30
2019-03-17T04:54:59.626Z,9.20
2019-03-17T04:57:31.706Z,9.10
2019-03-17T05:00:05.600Z,9.00
2019-03-17T05:02:37.056Z,8.80
2019-03-17T05:05:09.293Z,8.80
2019-03-17T05:07:41.259Z,8.60
2019-03-17T05:10:13.204Z,8.60
2019-03-17T05:12:44.593Z,8.50
2019-03-17T05:15:17.513Z,8.40
2019-03-17T05:17:48.702Z,8.40
2019-03-17T05:20:20.883Z,8.30
2019-03-17T05:22:53.750Z,8.30
2019-03-17T05:25:25.628Z,8.30
2019-03-17T05:27:57.406Z,8.30
2019-03-17T05:30:28.898Z,8.30
2019-03-17T05:33:00.816Z,8.30
2019-03-17T05:35:32.379Z,8.30
2019-03-17T05:38:05.425Z,8.30
2019-03-17T05:40:38.095Z,8.30
2019-03-17T05:43:10.620Z,8.30
2019-03-17T05:45:42.078Z,8.20
2019-03-17T05:48:15.219Z,8.20
2019-03-17T05:50:48.621Z,8.20
2019-03-17T05:53:22.319Z,8.20
2019-03-17T05:55:54.810Z,8.20
2019-03-17T05:58:32.541Z,8.10
2019-03-17T06:01:37.792Z,8.10
2019-03-17T06:04:17.583Z,8.10
2019-03-17T06:06:58.214Z,8.10
2019-03-17T06:09:39.296Z,8.10
2019-03-17T06:12:13.696Z,8.10
2019-03-17T06:14:47.321Z,8.10
2019-03-17T06:17:29.378Z,8.10
2019-03-17T06:20:03.834Z,8.10
2019-03-17T06:22:45.351Z,8.10
2019-03-17T06:25:19.576Z,8.00
2019-03-17T06:27:51.446Z,8.10
2019-03-17T06:30:23.430Z,8.10
2019-03-17T06:32:56.966Z,8.00
2019-03-17T06:35:29.106Z,8.10
2019-03-17T06:38:00.358Z,8.00
2019-03-17T06:40:32.475Z,8.00
2019-03-17T06:43:04.852Z,8.00
2019-03-17T06:45:36.393Z,8.00
2019-03-17T06:48:10.189Z,8.00
2019-03-17T06:50:41.703Z,8.00
2019-03-17T06:53:14.550Z,8.00
2019-03-17T06:55:46.336Z,8.00
2019-03-17T06:58:22.505Z,8.10
2019-03-17T07:00:55.412Z,8.10
2019-03-17T07:03:30.610Z,8.10
2019-03-17T07:06:03.727Z,8.10
2019-03-17T07:08:36.683Z,8.10
2019-03-17T07:11:14.785Z,8.10
2019-03-17T07:13:52.654Z,8.10
2019-03-17T07:16:25.594Z,8.10
2019-03-17T07:19:03.096Z,8.20
2019-03-17T07:21:35.440Z,8.10
2019-03-17T07:24:09.989Z,8.10
2019-03-17T07:26:42.439Z,8.10
2019-03-17T07:29:15.519Z,8.10
2019-03-17T07:31:47.350Z,8.10
2019-03-17T07:34:19.343Z,8.10
2019-03-17T07:36:51.592Z,8.10
2019-03-17T07:42:01.702Z,6.80
2019-03-17T07:44:36.261Z,6.50
2019-03-17T07:47:10.214Z,6.40
2019-03-17T07:49:49.795Z,6.40
2019-03-17T07:52:27.145Z,6.40
2019-03-17T07:55:05.794Z,6.30
2019-03-17T07:57:36.676Z,6.40
2019-03-17T08:02:38.174Z,6.50
2019-03-17T08:05:17.505Z,6.60
2019-03-17T08:07:50.273Z,6.60
2019-03-17T08:10:28.848Z,6.80
2019-03-17T08:13:03.089Z,6.90
2019-03-17T08:15:37.988Z,7.00
2019-03-17T08:18:10.940Z,7.00
2019-03-17T08:20:44.199Z,7.00
2019-03-17T08:23:16.802Z,7.10
2019-03-17T08:25:48.669Z,7.10
2019-03-17T08:28:21.963Z,7.00
2019-03-17T08:30:54.466Z,7.00
2019-03-17T08:33:27.488Z,7.00
2019-03-17T08:36:01.204Z,7.10
2019-03-17T08:38:33.602Z,7.10
2019-03-17T08:41:06.017Z,7.20
2019-03-17T08:43:53.828Z,7.20
2019-03-17T08:46:18.889Z,7.30
2019-03-17T08:48:53.456Z,7.40
2019-03-17T08:51:31.214Z,7.60
2019-03-17T08:54:05.811Z,7.70
2019-03-17T08:56:40.677Z,7.60
2019-03-17T08:59:20.080Z,7.60
2019-03-17T09:01:52.693Z,7.70
2019-03-17T09:04:24.830Z,7.80
2019-03-17T09:06:56.263Z,7.90
2019-03-17T09:09:29.592Z,8.00
2019-03-17T09:12:03.826Z,8.30
2019-03-17T09:14:39.630Z,8.50
2019-03-17T09:17:14.576Z,8.70
2019-03-17T09:19:49.760Z,8.70
2019-03-17T09:22:22.821Z,8.80
2019-03-17T09:24:56.572Z,8.90
2019-03-17T09:27:35.238Z,9.00
2019-03-17T09:30:12.519Z,9.10
2019-03-17T09:32:48.565Z,9.00
2019-03-17T09:35:22.094Z,8.90
2019-03-17T09:37:55.074Z,8.90
2019-03-17T09:40:28.373Z,8.90
2019-03-17T09:43:03.646Z,8.90
2019-03-17T09:45:36.056Z,9.10
2019-03-17T09:48:10.938Z,9.40
2019-03-17T09:50:43.852Z,9.50
2019-03-17T09:53:16.555Z,9.60
2019-03-17T09:55:49.187Z,9.50
2019-03-17T09:58:21.084Z,9.60
2019-03-17T10:00:53.858Z,9.50
2019-03-17T10:03:26.061Z,9.60
2019-03-17T10:05:59.940Z,9.70
2019-03-17T10:08:36.140Z,9.60
2019-03-17T10:11:10.623Z,9.60
2019-03-17T10:13:44.172Z,9.60
2019-03-17T10:16:19.160Z,9.40
2019-03-17T10:18:54.547Z,9.30
2019-03-17T10:21:27.548Z,9.30
2019-03-17T10:24:13.974Z,9.20
2019-03-17T10:26:49.785Z,8.90
2019-03-17T10:31:56.533Z,6.70
2019-03-17T10:34:30.075Z,6.30
2019-03-17T10:37:03.813Z,6.40
2019-03-17T10:39:34.431Z,6.50
2019-03-17T10:42:08.517Z,6.60
2019-03-17T10:44:42.694Z,6.60
2019-03-17T10:47:15.819Z,6.70
2019-03-17T10:49:48.449Z,6.90
2019-03-17T10:52:22.543Z,7.20
2019-03-17T10:54:57.741Z,8.00
2019-03-17T10:57:30.165Z,9.30
2019-03-17T11:00:02.648Z,10.40
2019-03-17T11:02:36.089Z,11.30
2019-03-17T11:05:09.518Z,12.10
2019-03-17T11:07:41.252Z,12.90
2019-03-17T11:10:13.281Z,13.70
2019-03-17T11:12:47.746Z,14.00
2019-03-17T11:15:21.592Z,13.50
2019-03-17T11:17:53.612Z,13.80
2019-03-17T11:20:25.783Z,14.00
2019-03-17T11:22:58.104Z,12.50
2019-03-17T11:25:31.202Z,10.40
2019-03-17T11:28:05.663Z,9.00
2019-03-17T11:30:56.574Z,8.60
2019-03-17T11:33:34.442Z,8.60
2019-03-17T11:36:09.094Z,9.70
2019-03-17T11:38:41.963Z,11.00
2019-03-17T11:41:17.771Z,11.40
2019-03-17T11:43:54.076Z,12.20
2019-03-17T11:46:30.388Z,12.60
2019-03-17T11:49:06.151Z,13.00
2019-03-17T11:51:39.176Z,14.00
2019-03-17T11:54:14.510Z,14.50
2019-03-17T11:56:49.884Z,13.80
2019-03-17T11:59:25.408Z,13.60
2019-03-17T12:01:59.505Z,13.90
2019-03-17T12:04:32.532Z,14.20
2019-03-17T12:07:07.526Z,14.10
2019-03-17T12:09:49.732Z,14.10
2019-03-17T12:12:15.206Z,14.40
2019-03-17T12:14:48.438Z,15.20
2019-03-17T12:17:20.848Z,15.90
2019-03-17T12:19:52.881Z,16.00
2019-03-17T12:22:37.994Z,16.20
2019-03-17T12:25:13.911Z,15.00
2019-03-17T12:27:46.254Z,14.40
2019-03-17T12:30:24.628Z,15.40
2019-03-17T12:33:05.344Z,15.60
2019-03-17T12:35:45.678Z,14.70
2019-03-17T12:38:20.504Z,12.60
2019-03-17T12:40:52.751Z,11.50
2019-03-17T12:43:28.371Z,10.90
2019-03-17T12:46:01.422Z,10.70
2019-03-17T12:48:36.162Z,10.70
2019-03-17T12:51:10.238Z,10.40
2019-03-17T12:53:59.404Z,10.80
2019-03-17T12:56:33.673Z,11.10
2019-03-17T12:59:07.815Z,11.70
2019-03-17T13:01:39.973Z,13.10
2019-03-17T13:04:12.798Z,14.60
2019-03-17T13:09:13.141Z,16.00
2019-03-17T13:11:45.855Z,15.70
2019-03-17T13:14:24.599Z,16.50
2019-03-17T13:16:57.159Z,16.10
2019-03-17T13:19:33.212Z,14.90
2019-03-17T13:22:05.890Z,13.50
2019-03-17T13:24:45.913Z,12.80
2019-03-17T13:27:18.264Z,12.40
2019-03-17T13:29:50.736Z,11.80
2019-03-17T13:32:25.241Z,12.10
2019-03-17T13:35:01.695Z,12.20
2019-03-17T13:37:35.319Z,12.40
2019-03-17T13:40:13.109Z,13.00
2019-03-17T13:42:47.807Z,14.00
2019-03-17T13:45:20.393Z,14.70
2019-03-17T13:47:53.560Z,15.50
2019-03-17T13:50:29.298Z,14.60
2019-03-17T13:53:02.698Z,14.00
2019-03-17T13:55:34.496Z,14.70
2019-03-17T13:58:06.092Z,16.30
2019-03-17T14:00:38.270Z,18.30
2019-03-17T14:03:10.671Z,18.00
2019-03-17T14:05:44.006Z,17.20
2019-03-17T14:08:16.146Z,16.50
2019-03-17T14:10:47.909Z,14.50
2019-03-17T14:13:25.535Z,12.20
2019-03-17T14:15:57.567Z,10.80
2019-03-17T14:18:29.349Z,10.10
2019-03-17T14:21:01.846Z,10.40
2019-03-17T14:23:34.997Z,10.10
2019-03-17T14:26:07.497Z,9.90
2019-03-17T14:28:40.359Z,9.80
2019-03-17T14:31:13.213Z,9.60
2019-03-17T14:33:45.629Z,10.40
2019-03-17T14:36:18.402Z,10.90
2019-03-17T14:38:51.314Z,11.20
2019-03-17T14:41:24.992Z,11.50
2019-03-17T14:44:00.312Z,11.50
2019-03-17T14:46:35.655Z,11.20
2019-03-17T14:49:11.324Z,10.70
2019-03-17T14:51:48.564Z,10.40
2019-03-17T14:54:21.139Z,10.40
2019-03-17T14:56:54.188Z,10.20
2019-03-17T14:59:27.769Z,10.20
2019-03-17T15:02:00.601Z,10.20
2019-03-17T15:04:33.191Z,10.50
2019-03-17T15:07:05.908Z,12.10
2019-03-17T15:09:54.607Z,12.70
2019-03-17T15:15:22.176Z,11.20
2019-03-17T15:18:01.468Z,10.70
2019-03-17T15:20:36.147Z,10.90
2019-03-17T15:23:09.258Z,11.70
2019-03-17T15:25:42.617Z,11.20
2019-03-17T15:28:14.919Z,10.90
2019-03-17T15:31:05.609Z,10.40
2019-03-17T15:33:23.122Z,10.10
2019-03-17T15:35:55.559Z,10.00
2019-03-17T15:38:27.718Z,9.90
2019-03-17T15:41:01.313Z,9.80
2019-03-17T15:43:34.890Z,9.70
2019-03-17T15:46:12.379Z,9.70
2019-03-17T15:48:49.423Z,9.80
2019-03-17T15:51:22.122Z,10.00
2019-03-17T15:53:56.471Z,10.00
2019-03-17T15:56:30.216Z,10.20
2019-03-17T15:59:10.011Z,10.40
2019-03-17T16:01:45.560Z,10.40
2019-03-17T16:04:19.682Z,10.20
2019-03-17T16:06:52.917Z,9.90
2019-03-17T16:09:28.851Z,9.80
2019-03-17T16:12:06.575Z,9.70
2019-03-17T16:14:45.403Z,9.50
2019-03-17T16:17:18.316Z,9.30
2019-03-17T16:19:50.865Z,8.60
2019-03-17T16:22:26.859Z,8.10
2019-03-17T16:24:59.130Z,8.00
2019-03-17T16:27:31.301Z,7.90
2019-03-17T16:30:06.396Z,7.80
2019-03-17T16:32:38.689Z,7.80
2019-03-17T16:35:12.203Z,7.80
2019-03-17T16:37:45.377Z,7.80
2019-03-17T16:40:18.854Z,7.80
2019-03-17T16:42:53.595Z,7.80
2019-03-17T16:45:27.306Z,7.80
2019-03-17T16:48:00.478Z,7.80
2019-03-17T16:50:39.051Z,7.80
2019-03-17T16:53:14.969Z,7.80
2019-03-17T16:55:54.765Z,7.80
2019-03-17T16:58:29.418Z,7.90
2019-03-17T17:01:06.435Z,8.00
2019-03-17T17:03:44.811Z,8.10
2019-03-17T17:06:18.810Z,8.00
2019-03-17T17:08:55.297Z,8.00
2019-03-17T17:11:30.159Z,7.90
2019-03-17T17:14:19.695Z,7.90
2019-03-17T17:16:56.963Z,7.80
2019-03-17T17:21:58.838Z,7.70
2019-03-17T17:24:46.981Z,7.60
2019-03-17T17:27:21.287Z,7.50
2019-03-17T17:29:55.873Z,7.30
2019-03-17T17:32:38.807Z,7.20
2019-03-17T17:35:35.542Z,7.10
2019-03-17T17:38:10.557Z,7.10
2019-03-17T17:40:45.606Z,7.00
2019-03-17T17:43:25.894Z,7.00
2019-03-17T17:45:59.971Z,7.00
2019-03-17T17:48:36.254Z,7.00
2019-03-17T17:51:12.190Z,7.00
2019-03-17T17:53:47.790Z,7.00
2019-03-17T17:56:22.652Z,6.90
2019-03-17T17:58:56.952Z,6.70
2019-03-17T18:01:31.319Z,6.50
2019-03-17T18:04:07.636Z,6.40
2019-03-17T18:06:44.908Z,6.30
2019-03-17T18:09:22.862Z,6.30
2019-03-17T18:12:02.059Z,6.20
2019-03-17T18:14:38.371Z,6.20
2019-03-17T18:17:15.883Z,6.10
2019-03-17T18:19:48.333Z,6.00
2019-03-17T18:22:28.410Z,6.00
2019-03-17T18:25:07.354Z,5.90
2019-03-17T18:27:41.118Z,5.90
2019-03-17T18:30:15.611Z,5.90
2019-03-17T18:32:55.129Z,5.90
2019-03-17T18:35:30.774Z,5.90
2019-03-17T18:38:07.232Z,5.90
2019-03-17T18:40:42.315Z,5.90
2019-03-17T18:46:04.107Z,5.90
2019-03-17T18:48:37.134Z,5.80
2019-03-17T18:51:15.993Z,5.80
2019-03-17T18:53:51.559Z,5.70
2019-03-17T18:56:27.470Z,5.60
2019-03-17T18:59:00.528Z,5.60
2019-03-17T19:01:41.998Z,5.50
2019-03-17T19:04:19.021Z,5.40
2019-03-17T19:06:53.756Z,5.30
2019-03-17T19:09:25.847Z,5.30
2019-03-17T19:11:58.993Z,5.20
2019-03-17T19:14:31.156Z,5.10
2019-03-17T19:17:03.530Z,5.10
2019-03-17T19:19:36.555Z,5.00
2019-03-17T19:22:10.147Z,5.00
2019-03-17T19:24:43.447Z,4.90
2019-03-17T19:27:17.819Z,4.90
2019-03-17T19:29:50.292Z,5.00
2019-03-17T19:32:24.305Z,5.00
2019-03-17T19:34:58.008Z,5.00
2019-03-17T19:37:32.297Z,5.00
2019-03-17T19:40:05.208Z,4.90
2019-03-17T19:42:39.404Z,4.90
2019-03-17T19:45:16.736Z,4.70
2019-03-17T19:47:50.277Z,4.60
2019-03-17T19:50:24.455Z,4.50
2019-03-17T19:53:03.584Z,4.40
2019-03-17T19:55:39.148Z,4.30
2019-03-17T19:58:15.468Z,4.30
2019-03-17T20:00:48.477Z,4.20
2019-03-17T20:03:33.622Z,4.20
2019-03-17T20:06:10.556Z,4.20
2019-03-17T20:08:43.435Z,4.20
2019-03-17T20:11:16.155Z,4.20
2019-03-17T20:13:55.597Z,4.10
2019-03-17T20:16:29.299Z,4.00
2019-03-17T20:19:05.220Z,3.90
2019-03-17T20:21:38.107Z,3.90
2019-03-17T20:24:07.104Z,3.80
2019-03-17T20:26:41.551Z,3.80
2019-03-17T20:29:15.178Z,3.70
2019-03-17T20:31:48.190Z,3.70
2019-03-17T20:34:22.061Z,3.70
2019-03-17T20:36:56.261Z,3.70
2019-03-17T20:39:29.457Z,3.70
2019-03-17T20:42:02.507Z,3.70
2019-03-17T20:44:36.448Z,3.70
2019-03-17T20:47:09.914Z,3.70
2019-03-17T20:49:42.655Z,3.70
2019-03-17T20:52:15.591Z,3.70
2019-03-17T20:54:49.239Z,3.70
2019-03-17T20:57:23.032Z,3.60
2019-03-17T20:59:55.821Z,3.60
2019-03-17T21:02:28.814Z,3.60
2019-03-17T21:05:02.305Z,3.60
2019-03-17T21:07:37.794Z,3.60
2019-03-17T21:10:12.939Z,3.60
2019-03-17T21:12:46.403Z,3.60
2019-03-17T21:15:23.175Z,3.60
2019-03-17T21:17:57.196Z,3.60
2019-03-17T21:20:30.671Z,3.60
2019-03-17T21:23:04.998Z,3.60
2019-03-17T21:25:38.695Z,3.50
2019-03-17T21:28:12.002Z,3.50
2019-03-17T21:30:45.067Z,3.50
2019-03-17T21:33:18.542Z,3.60
2019-03-17T21:35:53.956Z,3.60
2019-03-17T21:38:28.492Z,3.70
2019-03-17T21:41:07.178Z,3.70
2019-03-17T21:43:37.386Z,3.70
2019-03-17T21:46:11.783Z,3.70
2019-03-17T21:48:44.888Z,3.70
2019-03-17T21:51:18.023Z,3.70
2019-03-17T21:53:51.171Z,3.70
2019-03-17T21:56:25.064Z,3.70
2019-03-17T21:58:57.900Z,3.70
2019-03-17T22:01:32.200Z,3.70
2019-03-17T22:04:05.417Z,3.60
2019-03-17T22:06:39.068Z,3.60
2019-03-17T22:09:13.290Z,3.60
2019-03-17T22:11:46.774Z,3.50
2019-03-17T22:14:19.888Z,3.50
2019-03-17T22:16:53.073Z,3.50
2019-03-17T22:19:26.058Z,3.50
2019-03-17T22:22:00.015Z,3.50
2019-03-17T22:24:33.120Z,3.50
2019-03-17T22:27:05.685Z,3.40
2019-03-17T22:29:37.743Z,3.40
2019-03-17T22:32:10.725Z,3.30
2019-03-17T22:34:44.193Z,3.40
2019-03-17T22:37:17.030Z,3.40
2019-03-17T22:39:45.902Z,3.40
2019-03-17T22:42:19.358Z,3.40
2019-03-17T22:44:54.282Z,3.40
2019-03-17T22:47:27.623Z,3.40
2019-03-17T22:50:00.584Z,3.30
2019-03-17T22:52:36.238Z,3.30
2019-03-17T22:55:09.659Z,3.30
2019-03-17T22:57:41.906Z,3.20
2019-03-17T23:00:41.996Z,3.20
2019-03-17T23:03:29.774Z,3.20
2019-03-17T23:06:06.228Z,3.10
2019-03-17T23:08:39.668Z,3.10
2019-03-17T23:11:12.435Z,3.10
2019-03-17T23:13:45.277Z,3.10
2019-03-17T23:16:18.815Z,3.10
2019-03-17T23:18:51.546Z,3.10
2019-03-17T23:21:24.406Z,3.10
2019-03-17T23:23:56.329Z,3.00
2019-03-17T23:26:28.521Z,3.00
2019-03-17T23:29:01.143Z,3.00
2019-03-17T23:31:33.247Z,3.00
2019-03-17T23:34:04.948Z,3.00
2019-03-17T23:36:37.640Z,3.00
2019-03-17T23:39:08.296Z,3.00
2019-03-17T23:41:40.650Z,3.00
2019-03-17T23:44:13.501Z,3.00
2019-03-17T23:46:45.510Z,3.00
2019-03-17T23:49:17.943Z,3.00
2019-03-17T23:51:51.043Z,2.90
2019-03-17T23:54:24.454Z,2.80
2019-03-17T23:56:56.953Z,2.80
2019-03-17T23:59:29.478Z,2.80
